sensor_id;sensor_type;location;lat;lon;timestamp;pressure;altitude;pressure_sealevel;temperature;humidity
32873;BME280;19224;52.462;16.898;2023-05-22T00:00:52;100649.52;;;17.41;68.19
32873;BME280;19224;52.462;16.898;2023-05-22T00:03:25;100654.36;;;17.43;68.34
32873;BME280;19224;52.462;16.898;2023-05-22T00:05:56;100652.81;;;17.46;68.28
32873;BME280;19224;52.462;16.898;2023-05-22T00:08:27;100653.41;;;17.44;69.23
32873;BME280;19224;52.462;16.898;2023-05-22T00:10:57;100651.69;;;17.36;69.43
32873;BME280;19224;52.462;16.898;2023-05-22T00:13:28;100657.78;;;17.33;69.76
32873;BME280;19224;52.462;16.898;2023-05-22T00:15:58;100654.37;;;17.29;70.81
32873;BME280;19224;52.462;16.898;2023-05-22T00:18:29;100653.23;;;17.26;71.11
32873;BME280;19224;52.462;16.898;2023-05-22T00:21:00;100646.64;;;17.23;70.85
32873;BME280;19224;52.462;16.898;2023-05-22T00:23:30;100656.09;;;17.18;71.01
32873;BME280;19224;52.462;16.898;2023-05-22T00:26:00;100651.92;;;17.12;71.45
32873;BME280;19224;52.462;16.898;2023-05-22T00:28:31;100654.64;;;17.05;72.00
32873;BME280;19224;52.462;16.898;2023-05-22T00:31:02;100648.81;;;17.04;71.82
32873;BME280;19224;52.462;16.898;2023-05-22T00:33:32;100652.13;;;17.02;72.12
32873;BME280;19224;52.462;16.898;2023-05-22T00:36:03;100650.30;;;16.96;72.65
32873;BME280;19224;52.462;16.898;2023-05-22T00:38:35;100650.39;;;16.94;72.62
32873;BME280;19224;52.462;16.898;2023-05-22T00:41:06;100640.95;;;16.93;72.77
32873;BME280;19224;52.462;16.898;2023-05-22T00:43:39;100641.07;;;16.85;73.34
32873;BME280;19224;52.462;16.898;2023-05-22T00:46:09;100643.20;;;16.87;73.67
32873;BME280;19224;52.462;16.898;2023-05-22T00:48:41;100643.91;;;16.83;73.86
32873;BME280;19224;52.462;16.898;2023-05-22T00:51:11;100640.77;;;16.82;74.17
32873;BME280;19224;52.462;16.898;2023-05-22T00:53:44;100636.43;;;16.80;74.15
32873;BME280;19224;52.462;16.898;2023-05-22T00:56:15;100637.02;;;16.78;74.38
32873;BME280;19224;52.462;16.898;2023-05-22T00:58:46;100636.34;;;16.74;74.68
32873;BME280;19224;52.462;16.898;2023-05-22T01:01:17;100632.84;;;16.72;74.84
32873;BME280;19224;52.462;16.898;2023-05-22T01:03:48;100639.53;;;16.81;74.31
32873;BME280;19224;52.462;16.898;2023-05-22T01:06:20;100637.96;;;16.77;74.70
32873;BME280;19224;52.462;16.898;2023-05-22T01:08:50;100631.38;;;16.81;74.95
32873;BME280;19224;52.462;16.898;2023-05-22T01:11:57;100632.14;;;16.76;75.18
32873;BME280;19224;52.462;16.898;2023-05-22T01:17:52;100632.73;;;16.74;76.00
32873;BME280;19224;52.462;16.898;2023-05-22T01:20:27;100629.80;;;16.77;75.64
32873;BME280;19224;52.462;16.898;2023-05-22T01:23:18;100637.19;;;16.75;75.67
32873;BME280;19224;52.462;16.898;2023-05-22T01:29:42;100631.66;;;16.76;76.17
32873;BME280;19224;52.462;16.898;2023-05-22T01:32:19;100632.05;;;16.77;76.63
32873;BME280;19224;52.462;16.898;2023-05-22T01:34:52;100631.75;;;16.75;77.56
32873;BME280;19224;52.462;16.898;2023-05-22T01:37:24;100634.30;;;16.78;77.58
32873;BME280;19224;52.462;16.898;2023-05-22T01:39:55;100635.54;;;16.79;76.72
32873;BME280;19224;52.462;16.898;2023-05-22T01:42:27;100635.83;;;16.75;77.34
32873;BME280;19224;52.462;16.898;2023-05-22T01:44:58;100631.37;;;16.74;77.48
32873;BME280;19224;52.462;16.898;2023-05-22T01:47:28;100632.73;;;16.74;77.47
32873;BME280;19224;52.462;16.898;2023-05-22T01:49:59;100633.33;;;16.79;77.64
32873;BME280;19224;52.462;16.898;2023-05-22T01:56:05;100629.80;;;16.77;77.50
32873;BME280;19224;52.462;16.898;2023-05-22T01:58:44;100635.45;;;16.74;77.98
32873;BME280;19224;52.462;16.898;2023-05-22T02:01:15;100629.91;;;16.68;79.07
32873;BME280;19224;52.462;16.898;2023-05-22T02:03:48;100636.74;;;16.61;80.04
32873;BME280;19224;52.462;16.898;2023-05-22T02:06:24;100637.21;;;16.61;80.21
32873;BME280;19224;52.462;16.898;2023-05-22T02:08:56;100635.85;;;16.61;80.10
32873;BME280;19224;52.462;16.898;2023-05-22T02:11:30;100634.31;;;16.57;80.57
32873;BME280;19224;52.462;16.898;2023-05-22T02:14:03;100629.34;;;16.56;80.32
32873;BME280;19224;52.462;16.898;2023-05-22T02:16:33;100629.33;;;16.49;80.59
32873;BME280;19224;52.462;16.898;2023-05-22T02:19:06;100627.50;;;16.50;81.17
32873;BME280;19224;52.462;16.898;2023-05-22T02:21:36;100622.27;;;16.47;81.36
32873;BME280;19224;52.462;16.898;2023-05-22T02:24:06;100622.46;;;16.37;82.57
32873;BME280;19224;52.462;16.898;2023-05-22T02:26:37;100622.93;;;16.36;82.44
32873;BME280;19224;52.462;16.898;2023-05-22T02:29:08;100621.95;;;16.37;82.32
32873;BME280;19224;52.462;16.898;2023-05-22T02:31:39;100628.23;;;16.31;83.79
32873;BME280;19224;52.462;16.898;2023-05-22T02:34:09;100625.92;;;16.25;84.39
32873;BME280;19224;52.462;16.898;2023-05-22T02:36:40;100627.56;;;16.20;84.87
32873;BME280;19224;52.462;16.898;2023-05-22T02:39:11;100624.64;;;16.09;86.07
32873;BME280;19224;52.462;16.898;2023-05-22T02:41:41;100629.78;;;16.00;87.30
32873;BME280;19224;52.462;16.898;2023-05-22T02:44:11;100626.36;;;16.03;86.93
32873;BME280;19224;52.462;16.898;2023-05-22T02:46:41;100629.27;;;16.00;87.25
32873;BME280;19224;52.462;16.898;2023-05-22T02:49:13;100628.89;;;15.99;87.08
32873;BME280;19224;52.462;16.898;2023-05-22T02:51:43;100625.64;;;15.86;88.36
32873;BME280;19224;52.462;16.898;2023-05-22T02:54:15;100626.81;;;15.82;88.41
32873;BME280;19224;52.462;16.898;2023-05-22T02:56:46;100619.02;;;15.76;89.17
32873;BME280;19224;52.462;16.898;2023-05-22T02:59:16;100617.86;;;15.73;89.32
32873;BME280;19224;52.462;16.898;2023-05-22T03:01:46;100614.84;;;15.70;90.09
32873;BME280;19224;52.462;16.898;2023-05-22T03:04:17;100615.72;;;15.71;89.46
32873;BME280;19224;52.462;16.898;2023-05-22T03:06:47;100617.47;;;15.72;89.05
32873;BME280;19224;52.462;16.898;2023-05-22T03:09:18;100615.92;;;15.68;89.25
32873;BME280;19224;52.462;16.898;2023-05-22T03:11:48;100617.13;;;15.55;89.49
32873;BME280;19224;52.462;16.898;2023-05-22T03:14:18;100615.50;;;15.60;89.32
32873;BME280;19224;52.462;16.898;2023-05-22T03:16:48;100612.59;;;15.63;89.03
32873;BME280;19224;52.462;16.898;2023-05-22T03:19:19;100618.60;;;15.61;90.20
32873;BME280;19224;52.462;16.898;2023-05-22T03:21:49;100611.42;;;15.60;91.01
32873;BME280;19224;52.462;16.898;2023-05-22T03:24:19;100611.62;;;15.57;91.36
32873;BME280;19224;52.462;16.898;2023-05-22T03:26:49;100607.55;;;15.57;91.69
32873;BME280;19224;52.462;16.898;2023-05-22T03:29:19;100607.81;;;15.59;90.59
32873;BME280;19224;52.462;16.898;2023-05-22T03:31:50;100605.61;;;15.66;89.13
32873;BME280;19224;52.462;16.898;2023-05-22T03:34:20;100609.13;;;15.68;89.70
32873;BME280;19224;52.462;16.898;2023-05-22T03:36:52;100609.68;;;15.66;89.18
32873;BME280;19224;52.462;16.898;2023-05-22T03:39:25;100607.94;;;15.58;90.94
32873;BME280;19224;52.462;16.898;2023-05-22T03:41:55;100611.62;;;15.64;91.03
32873;BME280;19224;52.462;16.898;2023-05-22T03:44:26;100612.31;;;15.67;90.52
32873;BME280;19224;52.462;16.898;2023-05-22T03:46:56;100613.98;;;15.70;90.12
32873;BME280;19224;52.462;16.898;2023-05-22T03:49:26;100625.70;;;15.70;90.50
32873;BME280;19224;52.462;16.898;2023-05-22T03:51:56;100617.11;;;15.78;89.43
32873;BME280;19224;52.462;16.898;2023-05-22T03:54:27;100616.89;;;15.74;90.20
32873;BME280;19224;52.462;16.898;2023-05-22T03:56:57;100614.90;;;15.84;90.27
32873;BME280;19224;52.462;16.898;2023-05-22T03:59:27;100613.06;;;15.92;90.20
32873;BME280;19224;52.462;16.898;2023-05-22T04:01:58;100613.55;;;15.98;89.23
32873;BME280;19224;52.462;16.898;2023-05-22T04:04:29;100614.52;;;16.04;88.72
32873;BME280;19224;52.462;16.898;2023-05-22T04:07:00;100613.48;;;16.14;89.33
32873;BME280;19224;52.462;16.898;2023-05-22T04:09:33;100617.36;;;16.17;88.15
32873;BME280;19224;52.462;16.898;2023-05-22T04:12:04;100611.23;;;16.13;86.81
32873;BME280;19224;52.462;16.898;2023-05-22T04:14:34;100611.82;;;16.11;86.04
32873;BME280;19224;52.462;16.898;2023-05-22T04:17:05;100607.93;;;16.15;85.58
32873;BME280;19224;52.462;16.898;2023-05-22T04:19:35;100607.44;;;16.09;85.49
32873;BME280;19224;52.462;16.898;2023-05-22T04:22:05;100608.80;;;16.09;85.89
32873;BME280;19224;52.462;16.898;2023-05-22T04:24:35;100608.70;;;16.03;86.40
32873;BME280;19224;52.462;16.898;2023-05-22T04:27:07;100605.31;;;16.07;85.98
32873;BME280;19224;52.462;16.898;2023-05-22T04:29:37;100603.56;;;16.06;86.02
32873;BME280;19224;52.462;16.898;2023-05-22T04:32:09;100609.11;;;16.11;85.78
32873;BME280;19224;52.462;16.898;2023-05-22T04:34:39;100598.42;;;16.15;85.93
32873;BME280;19224;52.462;16.898;2023-05-22T04:37:10;100598.13;;;16.20;85.51
32873;BME280;19224;52.462;16.898;2023-05-22T04:39:42;100600.87;;;16.27;85.55
32873;BME280;19224;52.462;16.898;2023-05-22T04:42:14;100601.44;;;16.32;85.58
32873;BME280;19224;52.462;16.898;2023-05-22T04:44:45;100603.23;;;16.40;85.29
32873;BME280;19224;52.462;16.898;2023-05-22T04:47:17;100602.47;;;16.45;85.08
32873;BME280;19224;52.462;16.898;2023-05-22T04:49:48;100606.04;;;16.45;84.90
32873;BME280;19224;52.462;16.898;2023-05-22T04:52:20;100606.42;;;16.46;85.27
32873;BME280;19224;52.462;16.898;2023-05-22T04:54:51;100602.26;;;16.48;84.96
32873;BME280;19224;52.462;16.898;2023-05-22T04:57:23;100603.63;;;16.48;85.31
32873;BME280;19224;52.462;16.898;2023-05-22T04:59:55;100598.74;;;16.53;85.52
32873;BME280;19224;52.462;16.898;2023-05-22T05:02:26;100601.94;;;16.59;85.69
32873;BME280;19224;52.462;16.898;2023-05-22T05:04:56;100599.91;;;16.70;85.26
32873;BME280;19224;52.462;16.898;2023-05-22T05:07:26;100600.97;;;16.74;84.97
32873;BME280;19224;52.462;16.898;2023-05-22T05:09:57;100599.70;;;16.80;84.78
32873;BME280;19224;52.462;16.898;2023-05-22T05:12:27;100599.87;;;16.84;85.00
32873;BME280;19224;52.462;16.898;2023-05-22T05:14:57;100604.42;;;16.90;84.25
32873;BME280;19224;52.462;16.898;2023-05-22T05:17:28;100600.25;;;16.92;83.61
32873;BME280;19224;52.462;16.898;2023-05-22T05:19:59;100604.20;;;17.00;83.58
32873;BME280;19224;52.462;16.898;2023-05-22T05:22:29;100602.03;;;17.12;82.86
32873;BME280;19224;52.462;16.898;2023-05-22T05:24:59;100600.08;;;17.14;82.90
32873;BME280;19224;52.462;16.898;2023-05-22T05:27:29;100600.36;;;17.23;82.46
32873;BME280;19224;52.462;16.898;2023-05-22T05:30:00;100606.73;;;17.29;82.61
32873;BME280;19224;52.462;16.898;2023-05-22T05:32:31;100607.98;;;17.38;82.63
32873;BME280;19224;52.462;16.898;2023-05-22T05:35:01;100608.04;;;17.50;81.88
32873;BME280;19224;52.462;16.898;2023-05-22T05:37:31;100607.26;;;17.55;81.49
32873;BME280;19224;52.462;16.898;2023-05-22T05:40:01;100610.69;;;17.64;81.53
32873;BME280;19224;52.462;16.898;2023-05-22T05:42:33;100613.67;;;17.74;81.13
32873;BME280;19224;52.462;16.898;2023-05-22T05:45:04;100613.14;;;17.81;80.99
32873;BME280;19224;52.462;16.898;2023-05-22T05:47:35;100620.08;;;17.92;80.58
32873;BME280;19224;52.462;16.898;2023-05-22T05:50:06;100614.56;;;17.99;80.45
32873;BME280;19224;52.462;16.898;2023-05-22T05:52:37;100615.95;;;18.12;80.09
32873;BME280;19224;52.462;16.898;2023-05-22T05:55:08;100616.06;;;18.23;79.99
32873;BME280;19224;52.462;16.898;2023-05-22T05:57:39;100613.80;;;18.29;79.69
32873;BME280;19224;52.462;16.898;2023-05-22T06:00:10;100613.16;;;18.38;78.59
32873;BME280;19224;52.462;16.898;2023-05-22T06:02:40;100618.95;;;18.46;77.69
32873;BME280;19224;52.462;16.898;2023-05-22T06:05:11;100611.61;;;18.59;77.34
32873;BME280;19224;52.462;16.898;2023-05-22T06:07:43;100611.42;;;18.68;76.65
32873;BME280;19224;52.462;16.898;2023-05-22T06:10:16;100604.04;;;18.75;75.73
32873;BME280;19224;52.462;16.898;2023-05-22T06:12:46;100599.89;;;18.82;75.07
32873;BME280;19224;52.462;16.898;2023-05-22T06:15:17;100600.45;;;18.93;73.79
32873;BME280;19224;52.462;16.898;2023-05-22T06:17:47;100595.57;;;19.03;73.16
32873;BME280;19224;52.462;16.898;2023-05-22T06:20:20;100599.13;;;19.16;72.37
32873;BME280;19224;52.462;16.898;2023-05-22T06:22:52;100598.47;;;19.25;71.41
32873;BME280;19224;52.462;16.898;2023-05-22T06:25:22;100597.00;;;19.32;70.24
32873;BME280;19224;52.462;16.898;2023-05-22T06:27:54;100590.39;;;19.47;69.79
32873;BME280;19224;52.462;16.898;2023-05-22T06:30:25;100597.27;;;19.58;69.13
32873;BME280;19224;52.462;16.898;2023-05-22T06:32:56;100603.53;;;19.71;67.79
32873;BME280;19224;52.462;16.898;2023-05-22T06:35:26;100603.70;;;19.86;66.60
32873;BME280;19224;52.462;16.898;2023-05-22T06:37:56;100609.36;;;20.01;66.01
32873;BME280;19224;52.462;16.898;2023-05-22T06:40:27;100610.89;;;20.10;65.03
32873;BME280;19224;52.462;16.898;2023-05-22T06:42:58;100609.66;;;20.20;64.20
32873;BME280;19224;52.462;16.898;2023-05-22T06:45:29;100607.45;;;20.25;62.28
32873;BME280;19224;52.462;16.898;2023-05-22T06:47:59;100609.45;;;20.34;61.43
32873;BME280;19224;52.462;16.898;2023-05-22T06:50:30;100605.59;;;20.42;60.54
32873;BME280;19224;52.462;16.898;2023-05-22T06:53:01;100602.48;;;20.52;60.77
32873;BME280;19224;52.462;16.898;2023-05-22T06:55:34;100602.13;;;20.62;60.98
32873;BME280;19224;52.462;16.898;2023-05-22T06:58:04;100605.60;;;20.75;60.44
32873;BME280;19224;52.462;16.898;2023-05-22T07:00:34;100602.26;;;20.88;59.94
32873;BME280;19224;52.462;16.898;2023-05-22T07:03:04;100605.76;;;21.01;59.49
32873;BME280;19224;52.462;16.898;2023-05-22T07:05:35;100595.15;;;21.13;58.57
32873;BME280;19224;52.462;16.898;2023-05-22T07:08:06;100593.13;;;21.20;58.31
32873;BME280;19224;52.462;16.898;2023-05-22T07:10:37;100600.44;;;21.31;58.37
32873;BME280;19224;52.462;16.898;2023-05-22T07:13:07;100599.94;;;21.37;57.31
32873;BME280;19224;52.462;16.898;2023-05-22T07:15:37;100601.78;;;21.42;55.94
32873;BME280;19224;52.462;16.898;2023-05-22T07:18:08;100604.02;;;21.48;55.68
32873;BME280;19224;52.462;16.898;2023-05-22T07:20:38;100604.48;;;21.53;55.78
32873;BME280;19224;52.462;16.898;2023-05-22T07:23:09;100596.23;;;21.58;55.41
32873;BME280;19224;52.462;16.898;2023-05-22T07:25:39;100604.09;;;21.57;54.81
32873;BME280;19224;52.462;16.898;2023-05-22T07:28:09;100601.25;;;21.53;53.29
32873;BME280;19224;52.462;16.898;2023-05-22T07:30:40;100601.50;;;21.56;53.02
32873;BME280;19224;52.462;16.898;2023-05-22T07:33:10;100596.02;;;21.56;52.24
32873;BME280;19224;52.462;16.898;2023-05-22T07:35:42;100597.48;;;21.60;53.80
32873;BME280;19224;52.462;16.898;2023-05-22T07:38:13;100599.09;;;21.73;54.19
32873;BME280;19224;52.462;16.898;2023-05-22T07:40:43;100596.42;;;21.83;53.28
32873;BME280;19224;52.462;16.898;2023-05-22T07:43:14;100602.22;;;21.95;51.82
32873;BME280;19224;52.462;16.898;2023-05-22T07:45:44;100595.84;;;22.00;51.40
32873;BME280;19224;52.462;16.898;2023-05-22T07:48:14;100599.05;;;22.05;50.79
32873;BME280;19224;52.462;16.898;2023-05-22T07:50:45;100594.50;;;22.14;50.44
32873;BME280;19224;52.462;16.898;2023-05-22T07:53:16;100592.08;;;22.21;49.71
32873;BME280;19224;52.462;16.898;2023-05-22T07:55:46;100597.63;;;22.30;49.29
32873;BME280;19224;52.462;16.898;2023-05-22T07:58:16;100588.78;;;22.27;47.72
32873;BME280;19224;52.462;16.898;2023-05-22T08:00:47;100593.26;;;22.33;47.67
32873;BME280;19224;52.462;16.898;2023-05-22T08:03:17;100589.34;;;22.41;47.37
32873;BME280;19224;52.462;16.898;2023-05-22T08:05:48;100590.55;;;22.48;46.67
32873;BME280;19224;52.462;16.898;2023-05-22T08:08:18;100597.33;;;22.59;45.64
32873;BME280;19224;52.462;16.898;2023-05-22T08:10:49;100594.58;;;22.59;44.53
32873;BME280;19224;52.462;16.898;2023-05-22T08:13:20;100591.78;;;22.65;44.59
32873;BME280;19224;52.462;16.898;2023-05-22T08:15:51;100586.32;;;22.74;44.15
32873;BME280;19224;52.462;16.898;2023-05-22T08:18:21;100591.36;;;22.84;43.94
32873;BME280;19224;52.462;16.898;2023-05-22T08:20:54;100589.16;;;22.93;43.54
32873;BME280;19224;52.462;16.898;2023-05-22T08:23:24;100586.35;;;22.99;42.13
32873;BME280;19224;52.462;16.898;2023-05-22T08:25:55;100582.83;;;22.87;40.23
32873;BME280;19224;52.462;16.898;2023-05-22T08:28:26;100585.39;;;22.94;41.19
32873;BME280;19224;52.462;16.898;2023-05-22T08:30:56;100586.72;;;23.00;41.89
32873;BME280;19224;52.462;16.898;2023-05-22T08:33:46;100590.13;;;23.07;41.48
32873;BME280;19224;52.462;16.898;2023-05-22T08:36:16;100592.73;;;23.14;41.21
32873;BME280;19224;52.462;16.898;2023-05-22T08:38:47;100588.12;;;23.24;40.77
32873;BME280;19224;52.462;16.898;2023-05-22T08:41:18;100582.34;;;23.27;41.01
32873;BME280;19224;52.462;16.898;2023-05-22T08:43:53;100582.41;;;23.31;40.76
32873;BME280;19224;52.462;16.898;2023-05-22T08:46:24;100575.98;;;23.36;40.05
32873;BME280;19224;52.462;16.898;2023-05-22T08:48:58;100572.87;;;23.45;39.77
32873;BME280;19224;52.462;16.898;2023-05-22T08:51:32;100576.88;;;23.46;39.25
32873;BME280;19224;52.462;16.898;2023-05-22T08:54:06;100572.75;;;23.46;39.03
32873;BME280;19224;52.462;16.898;2023-05-22T08:56:38;100571.14;;;23.44;38.58
32873;BME280;19224;52.462;16.898;2023-05-22T08:59:10;100570.66;;;23.44;39.24
32873;BME280;19224;52.462;16.898;2023-05-22T09:01:40;100575.33;;;23.48;38.20
32873;BME280;19224;52.462;16.898;2023-05-22T09:04:11;100573.98;;;23.57;37.93
32873;BME280;19224;52.462;16.898;2023-05-22T09:06:45;100570.64;;;23.63;37.54
32873;BME280;19224;52.462;16.898;2023-05-22T09:09:14;100564.78;;;23.62;37.50
32873;BME280;19224;52.462;16.898;2023-05-22T09:11:44;100561.53;;;23.72;37.80
32873;BME280;19224;52.462;16.898;2023-05-22T09:14:15;100554.89;;;23.84;37.46
32873;BME280;19224;52.462;16.898;2023-05-22T09:16:50;100554.63;;;23.82;37.20
32873;BME280;19224;52.462;16.898;2023-05-22T09:19:22;100557.34;;;23.87;37.90
32873;BME280;19224;52.462;16.898;2023-05-22T09:22:05;100549.08;;;23.87;37.63
32873;BME280;19224;52.462;16.898;2023-05-22T09:24:26;100552.41;;;23.81;37.99
32873;BME280;19224;52.462;16.898;2023-05-22T09:26:58;100544.28;;;23.80;38.11
32873;BME280;19224;52.462;16.898;2023-05-22T09:29:29;100542.77;;;23.81;37.62
32873;BME280;19224;52.462;16.898;2023-05-22T09:32:00;100544.23;;;23.76;37.89
32873;BME280;19224;52.462;16.898;2023-05-22T09:34:30;100554.50;;;23.83;37.98
32873;BME280;19224;52.462;16.898;2023-05-22T09:37:02;100547.27;;;23.82;37.39
32873;BME280;19224;52.462;16.898;2023-05-22T09:39:46;100545.18;;;23.90;37.63
32873;BME280;19224;52.462;16.898;2023-05-22T09:42:18;100549.83;;;23.89;37.08
32873;BME280;19224;52.462;16.898;2023-05-22T09:44:49;100546.99;;;23.85;36.90
32873;BME280;19224;52.462;16.898;2023-05-22T09:47:20;100545.98;;;23.86;37.10
32873;BME280;19224;52.462;16.898;2023-05-22T09:49:53;100545.81;;;23.97;37.37
32873;BME280;19224;52.462;16.898;2023-05-22T09:52:33;100538.36;;;24.03;37.40
32873;BME280;19224;52.462;16.898;2023-05-22T09:55:03;100533.00;;;24.11;37.13
32873;BME280;19224;52.462;16.898;2023-05-22T09:57:44;100532.43;;;24.21;36.83
32873;BME280;19224;52.462;16.898;2023-05-22T10:00:17;100538.07;;;24.29;36.44
32873;BME280;19224;52.462;16.898;2023-05-22T10:03:00;100533.71;;;24.36;36.10
32873;BME280;19224;52.462;16.898;2023-05-22T10:05:29;100535.97;;;24.50;36.12
32873;BME280;19224;52.462;16.898;2023-05-22T10:08:09;100526.62;;;24.57;34.70
32873;BME280;19224;52.462;16.898;2023-05-22T10:10:42;100515.94;;;24.67;34.81
32873;BME280;19224;52.462;16.898;2023-05-22T10:13:14;100507.76;;;24.52;35.17
32873;BME280;19224;52.462;16.898;2023-05-22T10:15:47;100507.50;;;24.69;35.60
32873;BME280;19224;52.462;16.898;2023-05-22T10:18:18;100513.83;;;24.78;35.50
32873;BME280;19224;52.462;16.898;2023-05-22T10:20:50;100509.55;;;24.80;34.62
32873;BME280;19224;52.462;16.898;2023-05-22T10:23:22;100511.64;;;24.82;35.04
32873;BME280;19224;52.462;16.898;2023-05-22T10:25:55;100511.03;;;24.75;34.58
32873;BME280;19224;52.462;16.898;2023-05-22T10:28:32;100502.45;;;24.78;35.14
32873;BME280;19224;52.462;16.898;2023-05-22T10:31:26;100507.61;;;24.90;35.93
32873;BME280;19224;52.462;16.898;2023-05-22T10:34:04;100502.91;;;24.86;35.29
32873;BME280;19224;52.462;16.898;2023-05-22T10:37:00;100498.81;;;24.77;35.49
32873;BME280;19224;52.462;16.898;2023-05-22T10:42:30;100499.41;;;24.44;34.85
32873;BME280;19224;52.462;16.898;2023-05-22T10:45:02;100500.59;;;24.32;35.94
32873;BME280;19224;52.462;16.898;2023-05-22T10:47:33;100484.68;;;24.26;35.21
32873;BME280;19224;52.462;16.898;2023-05-22T10:50:09;100485.03;;;24.27;35.19
32873;BME280;19224;52.462;16.898;2023-05-22T10:52:40;100482.33;;;24.31;36.02
32873;BME280;19224;52.462;16.898;2023-05-22T10:55:13;100477.34;;;24.54;36.25
32873;BME280;19224;52.462;16.898;2023-05-22T10:57:43;100469.34;;;24.60;36.25
32873;BME280;19224;52.462;16.898;2023-05-22T11:00:16;100458.43;;;24.68;35.62
32873;BME280;19224;52.462;16.898;2023-05-22T11:02:47;100466.02;;;24.70;35.50
32873;BME280;19224;52.462;16.898;2023-05-22T11:10:53;100465.91;;;24.89;35.10
32873;BME280;19224;52.462;16.898;2023-05-22T11:13:27;100471.14;;;24.96;35.36
32873;BME280;19224;52.462;16.898;2023-05-22T11:15:58;100470.21;;;25.05;35.37
32873;BME280;19224;52.462;16.898;2023-05-22T11:18:30;100472.51;;;25.09;34.78
32873;BME280;19224;52.462;16.898;2023-05-22T11:21:00;100461.23;;;25.03;33.91
32873;BME280;19224;52.462;16.898;2023-05-22T11:23:33;100460.02;;;24.88;34.04
32873;BME280;19224;52.462;16.898;2023-05-22T11:26:21;100463.09;;;24.72;34.28
32873;BME280;19224;52.462;16.898;2023-05-22T11:28:52;100472.45;;;24.75;34.83
32873;BME280;19224;52.462;16.898;2023-05-22T11:31:23;100464.26;;;24.82;35.17
32873;BME280;19224;52.462;16.898;2023-05-22T11:33:55;100460.23;;;24.90;34.74
32873;BME280;19224;52.462;16.898;2023-05-22T11:36:27;100458.14;;;24.88;34.52
32873;BME280;19224;52.462;16.898;2023-05-22T11:38:58;100455.88;;;24.88;34.45
32873;BME280;19224;52.462;16.898;2023-05-22T11:41:35;100446.66;;;24.93;34.29
32873;BME280;19224;52.462;16.898;2023-05-22T11:44:07;100451.17;;;24.98;34.60
32873;BME280;19224;52.462;16.898;2023-05-22T11:46:39;100461.56;;;25.00;34.57
32873;BME280;19224;52.462;16.898;2023-05-22T11:49:10;100445.43;;;25.09;34.18
32873;BME280;19224;52.462;16.898;2023-05-22T11:51:41;100449.89;;;25.06;33.66
32873;BME280;19224;52.462;16.898;2023-05-22T11:54:12;100441.86;;;25.12;33.49
32873;BME280;19224;52.462;16.898;2023-05-22T11:56:42;100438.05;;;25.23;33.91
32873;BME280;19224;52.462;16.898;2023-05-22T11:59:13;100437.48;;;25.37;33.42
32873;BME280;19224;52.462;16.898;2023-05-22T12:01:44;100432.19;;;25.43;33.72
32873;BME280;19224;52.462;16.898;2023-05-22T12:04:14;100435.30;;;25.44;33.60
32873;BME280;19224;52.462;16.898;2023-05-22T12:06:45;100435.58;;;25.55;33.93
32873;BME280;19224;52.462;16.898;2023-05-22T12:09:15;100425.54;;;25.54;33.22
32873;BME280;19224;52.462;16.898;2023-05-22T12:11:49;100420.92;;;25.58;33.33
32873;BME280;19224;52.462;16.898;2023-05-22T12:17:02;100424.30;;;25.70;32.08
32873;BME280;19224;52.462;16.898;2023-05-22T12:19:43;100417.73;;;25.67;31.88
32873;BME280;19224;52.462;16.898;2023-05-22T12:22:15;100416.10;;;25.60;32.05
32873;BME280;19224;52.462;16.898;2023-05-22T12:24:46;100417.73;;;25.67;32.16
32873;BME280;19224;52.462;16.898;2023-05-22T12:27:18;100415.02;;;25.75;32.48
32873;BME280;19224;52.462;16.898;2023-05-22T12:29:48;100416.23;;;25.76;32.72
32873;BME280;19224;52.462;16.898;2023-05-22T12:32:21;100413.63;;;25.75;31.82
32873;BME280;19224;52.462;16.898;2023-05-22T12:34:56;100410.30;;;25.67;32.04
32873;BME280;19224;52.462;16.898;2023-05-22T12:37:28;100408.38;;;25.64;32.47
32873;BME280;19224;52.462;16.898;2023-05-22T12:40:02;100398.28;;;25.72;32.69
32873;BME280;19224;52.462;16.898;2023-05-22T12:42:36;100398.52;;;25.83;32.70
32873;BME280;19224;52.462;16.898;2023-05-22T12:45:07;100395.16;;;25.89;32.53
32873;BME280;19224;52.462;16.898;2023-05-22T12:47:37;100391.42;;;26.02;32.62
32873;BME280;19224;52.462;16.898;2023-05-22T12:50:08;100392.19;;;26.20;31.64
32873;BME280;19224;52.462;16.898;2023-05-22T12:52:38;100384.45;;;26.23;31.43
32873;BME280;19224;52.462;16.898;2023-05-22T12:55:10;100387.80;;;26.43;32.01
32873;BME280;19224;52.462;16.898;2023-05-22T12:57:42;100384.80;;;26.62;31.78
32873;BME280;19224;52.462;16.898;2023-05-22T13:00:14;100379.67;;;26.83;31.53
32873;BME280;19224;52.462;16.898;2023-05-22T13:02:45;100380.73;;;26.98;31.49
32873;BME280;19224;52.462;16.898;2023-05-22T13:05:16;100389.37;;;26.99;30.46
32873;BME280;19224;52.462;16.898;2023-05-22T13:07:46;100387.33;;;27.01;30.65
32873;BME280;19224;52.462;16.898;2023-05-22T13:10:17;100379.02;;;27.09;30.56
32873;BME280;19224;52.462;16.898;2023-05-22T13:12:48;100375.91;;;27.04;29.84
32873;BME280;19224;52.462;16.898;2023-05-22T13:15:19;100373.00;;;27.13;30.95
32873;BME280;19224;52.462;16.898;2023-05-22T13:17:49;100374.92;;;27.13;29.63
32873;BME280;19224;52.462;16.898;2023-05-22T13:20:20;100372.84;;;27.15;30.03
32873;BME280;19224;52.462;16.898;2023-05-22T13:22:51;100367.80;;;27.06;29.81
32873;BME280;19224;52.462;16.898;2023-05-22T13:25:22;100373.83;;;27.10;30.49